createdAt,value
2023-09-17T00:32:19.619Z,12.73
2023-09-17T00:33:10.959Z,14.15
2023-09-17T00:33:38.723Z,14.05
2023-09-17T00:36:09.107Z,14.60
2023-09-17T00:39:00.384Z,12.70
2023-09-17T00:41:32.452Z,15.77
2023-09-17T00:44:11.870Z,11.98
2023-09-17T00:46:53.709Z,12.45
2023-09-17T00:49:23.516Z,16.55
2023-09-17T00:51:52.398Z,16.05
2023-09-17T00:54:27.012Z,14.45
2023-09-17T00:56:58.036Z,12.55
2023-09-17T00:59:26.919Z,13.85
2023-09-17T01:02:03.501Z,14.68
2023-09-17T01:04:34.786Z,14.60
2023-09-17T01:07:08.555Z,16.10
2023-09-17T01:09:39.787Z,13.70
2023-09-17T01:12:08.411Z,14.55
2023-09-17T01:14:38.685Z,15.10
2023-09-17T01:17:09.764Z,12.27
2023-09-17T01:19:47.053Z,16.73
2023-09-17T01:22:28.018Z,12.25
2023-09-17T01:25:09.852Z,14.85
2023-09-17T01:27:50.816Z,15.38
2023-09-17T01:30:32.950Z,14.57
2023-09-17T01:33:14.863Z,14.98
2023-09-17T01:35:56.808Z,17.35
2023-09-17T01:38:35.428Z,20.08
2023-09-17T01:41:06.179Z,16.25
2023-09-17T01:43:37.264Z,21.55
2023-09-17T01:46:08.596Z,16.10
2023-09-17T01:48:38.923Z,15.57
2023-09-17T01:51:09.365Z,17.52
2023-09-17T01:53:59.633Z,14.70
2023-09-17T01:56:30.360Z,15.93
2023-09-17T01:58:58.763Z,14.85
2023-09-17T02:01:29.256Z,15.50
2023-09-17T02:04:00.149Z,16.48
2023-09-17T02:06:29.039Z,17.02
2023-09-17T02:08:57.710Z,14.10
2023-09-17T02:11:26.700Z,15.13
2023-09-17T02:13:56.516Z,15.90
2023-09-17T02:16:26.442Z,11.95
2023-09-17T02:18:57.247Z,13.35
2023-09-17T02:21:26.565Z,12.43
2023-09-17T02:23:56.688Z,15.13
2023-09-17T02:26:32.067Z,18.50
2023-09-17T02:29:01.333Z,10.75
2023-09-17T02:31:30.382Z,13.35
2023-09-17T02:34:00.117Z,13.88
2023-09-17T02:36:29.604Z,15.75
2023-09-17T02:39:18.542Z,13.40
2023-09-17T02:41:47.593Z,13.27
2023-09-17T02:44:25.264Z,14.60
2023-09-17T02:47:00.884Z,14.10
2023-09-17T02:49:29.848Z,13.90
2023-09-17T02:51:59.702Z,13.32
2023-09-17T02:54:29.331Z,15.10
2023-09-17T02:57:00.540Z,13.68
2023-09-17T02:59:38.759Z,14.95
2023-09-17T03:02:07.749Z,15.10
2023-09-17T03:04:43.758Z,18.05
2023-09-17T03:07:13.195Z,12.98
2023-09-17T03:09:42.237Z,12.80
2023-09-17T03:12:13.690Z,13.50
2023-09-17T03:14:43.183Z,14.98
2023-09-17T03:17:15.297Z,18.20
2023-09-17T03:19:45.688Z,17.25
2023-09-17T03:22:15.907Z,19.95
2023-09-17T03:25:04.481Z,19.83
2023-09-17T03:27:38.372Z,28.30
2023-09-17T03:30:13.625Z,25.40
2023-09-17T03:32:57.701Z,16.85
2023-09-17T03:35:34.586Z,14.73
2023-09-17T03:38:04.046Z,18.90
2023-09-17T03:40:34.994Z,16.23
2023-09-17T03:45:43.701Z,18.67
2023-09-17T03:48:13.755Z,19.55
2023-09-17T03:51:01.615Z,17.80
2023-09-17T03:53:31.824Z,21.02
2023-09-17T03:56:09.173Z,17.95
2023-09-17T03:58:40.369Z,15.00
2023-09-17T04:01:10.779Z,14.85
2023-09-17T04:03:39.633Z,17.77
2023-09-17T04:06:08.082Z,17.48
2023-09-17T04:08:36.879Z,14.20
2023-09-17T04:11:06.053Z,18.83
2023-09-17T04:13:34.847Z,19.13
2023-09-17T04:16:05.288Z,22.08
2023-09-17T04:18:34.162Z,15.93
2023-09-17T04:21:04.164Z,14.90
2023-09-17T04:24:24.390Z,16.38
2023-09-17T04:26:48.182Z,17.25
2023-09-17T04:29:24.500Z,18.05
2023-09-17T04:32:09.710Z,17.08
2023-09-17T04:35:00.404Z,17.67
2023-09-17T04:37:30.045Z,18.33
2023-09-17T04:40:02.136Z,20.67
2023-09-17T04:45:11.271Z,18.08
2023-09-17T04:47:41.505Z,22.63
2023-09-17T04:50:10.958Z,21.98
2023-09-17T04:52:39.574Z,20.60
2023-09-17T04:55:11.440Z,21.02
2023-09-17T04:58:02.959Z,19.17
2023-09-17T05:00:40.519Z,21.65
2023-09-17T05:03:13.578Z,20.85
2023-09-17T05:05:43.945Z,20.73
2023-09-17T05:08:12.881Z,22.80
2023-09-17T05:10:47.186Z,20.35
2023-09-17T05:13:15.794Z,24.83
2023-09-17T05:15:45.831Z,19.88
2023-09-17T05:18:14.382Z,22.15
2023-09-17T05:20:49.852Z,23.27
2023-09-17T05:23:19.306Z,20.95
2023-09-17T05:26:02.951Z,24.42
2023-09-17T05:28:54.217Z,25.58
2023-09-17T05:31:29.736Z,22.95
2023-09-17T05:34:10.747Z,22.92
2023-09-17T05:36:49.916Z,22.13
2023-09-17T05:39:30.173Z,21.77
2023-09-17T05:42:06.776Z,21.35
2023-09-17T05:45:01.833Z,24.40
2023-09-17T05:48:07.737Z,18.90
2023-09-17T05:50:44.122Z,20.20
2023-09-17T05:53:20.153Z,20.02
2023-09-17T05:55:55.962Z,19.67
2023-09-17T05:58:36.718Z,19.95
2023-09-17T06:01:10.121Z,19.30
2023-09-17T06:03:39.650Z,20.83
2023-09-17T06:06:12.307Z,20.70
2023-09-17T06:08:51.997Z,20.30
2023-09-17T06:11:23.124Z,20.27
2023-09-17T06:13:56.704Z,19.30
2023-09-17T06:16:36.464Z,19.20
2023-09-17T06:19:21.263Z,20.30
2023-09-17T06:22:05.083Z,19.17
2023-09-17T06:24:48.012Z,22.70
2023-09-17T06:27:45.206Z,21.05
2023-09-17T06:30:47.408Z,21.02
2023-09-17T06:37:35.006Z,17.73
2023-09-17T06:40:30.799Z,20.25
2023-09-17T06:44:03.788Z,21.08
2023-09-17T06:47:03.573Z,19.55
2023-09-17T06:49:57.099Z,19.95
2023-09-17T06:52:33.196Z,19.88
2023-09-17T06:55:57.093Z,25.60
2023-09-17T07:02:15.263Z,18.08
2023-09-17T07:04:59.948Z,18.52
2023-09-17T07:07:55.367Z,17.90
2023-09-17T07:11:51.954Z,17.42
2023-09-17T07:14:18.485Z,17.83
2023-09-17T07:14:43.813Z,16.98
2023-09-17T07:17:37.878Z,18.92
2023-09-17T07:25:01.850Z,18.73
2023-09-17T07:25:24.153Z,22.17
2023-09-17T07:34:09.111Z,16.98
2023-09-17T07:37:07.980Z,16.63
2023-09-17T07:39:37.147Z,21.17
2023-09-17T07:42:06.725Z,18.08
2023-09-17T07:44:51.138Z,18.65
2023-09-17T07:47:19.777Z,22.05
2023-09-17T07:49:49.788Z,15.85
2023-09-17T07:52:18.230Z,16.77
2023-09-17T07:54:47.350Z,14.98
2023-09-17T07:57:15.621Z,16.35
2023-09-17T08:00:02.799Z,15.63
2023-09-17T08:02:41.361Z,15.60
2023-09-17T08:05:10.991Z,16.95
2023-09-17T08:07:41.664Z,14.50
2023-09-17T08:10:11.153Z,15.13
2023-09-17T08:12:41.641Z,15.07
2023-09-17T08:15:11.757Z,15.38
2023-09-17T08:17:40.267Z,14.13
2023-09-17T08:20:16.352Z,12.93
2023-09-17T08:22:47.535Z,16.88
2023-09-17T08:25:16.934Z,13.18
2023-09-17T08:27:45.563Z,12.98
2023-09-17T08:30:15.267Z,13.80
2023-09-17T08:32:48.195Z,13.32
2023-09-17T08:35:22.858Z,16.17
2023-09-17T08:37:52.160Z,13.85
2023-09-17T08:40:25.464Z,15.73
2023-09-17T08:42:54.242Z,14.23
2023-09-17T08:45:23.557Z,14.45
2023-09-17T08:47:52.581Z,14.73
2023-09-17T08:50:22.140Z,16.50
2023-09-17T08:52:57.270Z,14.40
2023-09-17T08:55:35.329Z,14.85
2023-09-17T08:58:26.307Z,18.70
2023-09-17T09:01:00.308Z,13.77
2023-09-17T09:03:31.996Z,13.85
2023-09-17T09:06:02.686Z,13.05
2023-09-17T09:08:40.092Z,14.02
2023-09-17T09:11:09.848Z,12.32
2023-09-17T09:13:39.644Z,12.32
2023-09-17T09:16:08.769Z,12.57
2023-09-17T09:18:37.216Z,12.90
2023-09-17T09:21:11.185Z,13.10
2023-09-17T09:23:39.747Z,14.93
2023-09-17T09:26:08.974Z,12.15
2023-09-17T09:28:37.420Z,12.20
2023-09-17T09:31:06.167Z,13.45
2023-09-17T09:33:38.662Z,12.82
2023-09-17T09:36:07.517Z,13.02
2023-09-17T09:38:37.174Z,12.13
2023-09-17T09:41:06.836Z,14.02
2023-09-17T09:43:38.276Z,11.73
2023-09-17T09:46:10.144Z,12.27
2023-09-17T09:51:08.760Z,11.55
2023-09-17T09:53:37.476Z,12.20
2023-09-17T09:56:12.893Z,14.05
2023-09-17T09:58:41.495Z,9.88
2023-09-17T10:01:11.458Z,11.95
2023-09-17T10:03:40.790Z,9.98
2023-09-17T10:06:09.645Z,11.65
2023-09-17T10:08:39.521Z,11.25
2023-09-17T10:11:09.713Z,9.68
2023-09-17T10:13:44.543Z,8.98
2023-09-17T10:16:14.423Z,15.15
2023-09-17T10:18:44.927Z,11.45
2023-09-17T10:21:16.024Z,9.37
2023-09-17T10:23:45.514Z,8.97
2023-09-17T10:26:16.702Z,11.38
2023-09-17T10:28:47.330Z,27.90
2023-09-17T10:31:16.878Z,8.82
2023-09-17T10:33:49.270Z,11.27
2023-09-17T10:36:19.430Z,6.80
2023-09-17T10:38:48.207Z,6.60
2023-09-17T10:41:20.582Z,5.10
2023-09-17T10:43:52.670Z,11.10
2023-09-17T10:46:24.063Z,8.30
2023-09-17T10:48:54.980Z,8.27
2023-09-17T10:51:24.255Z,4.80
2023-09-17T10:53:53.043Z,8.02
2023-09-17T10:56:24.506Z,6.57
2023-09-17T10:58:54.044Z,7.95
2023-09-17T11:01:28.035Z,7.63
2023-09-17T11:04:04.789Z,7.97
2023-09-17T11:06:36.094Z,8.95
2023-09-17T11:09:06.102Z,7.32
2023-09-17T11:11:38.554Z,5.57
2023-09-17T11:14:07.030Z,7.45
2023-09-17T11:16:37.563Z,6.88
2023-09-17T11:19:14.943Z,6.55
2023-09-17T11:21:48.120Z,5.40
2023-09-17T11:24:19.257Z,6.10
2023-09-17T11:26:49.265Z,7.25
2023-09-17T11:29:20.645Z,7.78
2023-09-17T11:31:55.580Z,6.05
2023-09-17T11:34:24.284Z,6.68
2023-09-17T11:36:54.201Z,8.68
2023-09-17T11:39:23.709Z,18.02
2023-09-17T11:41:55.249Z,8.65
2023-09-17T11:44:24.567Z,8.55
2023-09-17T11:46:53.265Z,9.15
2023-09-17T11:49:23.731Z,6.05
2023-09-17T11:51:53.245Z,8.02
2023-09-17T11:54:24.377Z,9.85
2023-09-17T11:56:55.153Z,13.02
2023-09-17T11:59:28.509Z,6.93
2023-09-17T12:01:59.001Z,5.57
2023-09-17T12:04:37.487Z,7.10
2023-09-17T12:07:11.508Z,9.65
2023-09-17T12:09:47.957Z,5.78
2023-09-17T12:12:20.369Z,8.52
2023-09-17T12:14:52.717Z,7.68
2023-09-17T12:17:21.384Z,6.93
2023-09-17T12:20:18.342Z,6.85
2023-09-17T12:22:58.111Z,7.97
2023-09-17T12:25:29.763Z,8.40
2023-09-17T12:27:58.317Z,5.90
2023-09-17T12:30:27.601Z,6.95
2023-09-17T12:32:57.023Z,8.32
2023-09-17T12:35:25.669Z,10.70
2023-09-17T12:37:56.080Z,5.97
2023-09-17T12:40:24.732Z,13.05
2023-09-17T12:42:56.747Z,6.15
2023-09-17T12:45:39.575Z,5.60
2023-09-17T12:48:15.282Z,6.43
2023-09-17T12:50:44.624Z,7.75
2023-09-17T12:53:26.387Z,9.10
2023-09-17T12:55:59.439Z,6.25
2023-09-17T12:58:32.417Z,9.70
2023-09-17T13:01:15.019Z,10.77
2023-09-17T13:04:16.837Z,6.97
2023-09-17T13:06:55.149Z,7.43
2023-09-17T13:09:24.017Z,8.25
2023-09-17T13:11:57.202Z,7.85
2023-09-17T13:15:36.472Z,6.65
2023-09-17T13:18:15.489Z,16.50
2023-09-17T13:20:52.369Z,8.85
2023-09-17T13:23:41.933Z,10.02
2023-09-17T13:26:11.567Z,9.15
2023-09-17T13:28:41.395Z,7.38
2023-09-17T13:31:12.614Z,7.22
2023-09-17T13:33:41.633Z,6.45
2023-09-17T13:36:10.837Z,6.70
2023-09-17T13:38:43.525Z,11.60
2023-09-17T13:41:19.240Z,6.50
2023-09-17T13:43:48.253Z,20.23
2023-09-17T13:46:20.896Z,9.43
2023-09-17T13:48:51.481Z,9.02
2023-09-17T13:51:20.291Z,8.47
2023-09-17T13:53:49.004Z,15.95
2023-09-17T13:56:17.627Z,11.43
2023-09-17T13:58:46.321Z,17.67
2023-09-17T14:01:14.928Z,17.05
2023-09-17T14:05:50.328Z,8.45
2023-09-17T14:15:44.744Z,6.32
2023-09-17T14:23:10.546Z,10.52
2023-09-17T14:29:49.517Z,7.38
2023-09-17T14:31:39.984Z,10.45
2023-09-17T14:32:21.258Z,6.60
2023-09-17T14:39:12.528Z,8.38
2023-09-17T14:41:41.630Z,9.27
2023-09-17T14:44:17.853Z,13.18
2023-09-17T14:46:50.261Z,11.68
2023-09-17T14:49:20.801Z,19.42
2023-09-17T14:50:18.399Z,10.27
2023-09-17T14:51:49.470Z,12.57
2023-09-17T14:54:18.141Z,12.90
2023-09-17T14:56:51.152Z,26.90
2023-09-17T14:59:19.619Z,7.47
2023-09-17T15:01:59.637Z,7.38
2023-09-17T15:04:47.117Z,6.65
2023-09-17T15:07:22.493Z,19.95
2023-09-17T15:09:58.907Z,14.90
2023-09-17T15:12:40.982Z,8.40
2023-09-17T15:19:02.910Z,7.82
2023-09-17T15:21:31.732Z,51.50
2023-09-17T15:25:02.898Z,27.38
2023-09-17T15:27:38.494Z,25.40
2023-09-17T15:30:12.276Z,15.57
2023-09-17T15:33:09.444Z,14.63
2023-09-17T15:35:42.413Z,14.18
2023-09-17T15:41:59.108Z,10.65
2023-09-17T15:44:31.473Z,7.03
2023-09-17T15:47:07.322Z,13.70
2023-09-17T15:49:38.165Z,10.35
2023-09-17T15:52:08.534Z,7.68
2023-09-17T15:54:40.323Z,8.07
2023-09-17T15:57:23.009Z,10.93
2023-09-17T15:59:51.930Z,27.30
2023-09-17T16:02:21.394Z,19.55
2023-09-17T16:04:51.661Z,10.05
2023-09-17T16:07:23.379Z,9.10
2023-09-17T16:09:53.268Z,7.60
2023-09-17T16:12:22.719Z,11.25
2023-09-17T16:14:51.712Z,9.30
2023-09-17T16:17:20.076Z,12.90
2023-09-17T16:22:42.802Z,17.95
2023-09-17T16:25:14.438Z,17.48
2023-09-17T16:27:47.406Z,20.15
2023-09-17T16:30:16.582Z,13.15
2023-09-17T16:32:48.556Z,10.70
2023-09-17T16:35:18.702Z,14.40
2023-09-17T16:37:47.598Z,12.63
2023-09-17T16:40:16.288Z,18.90
2023-09-17T16:42:57.700Z,20.33
2023-09-17T16:45:33.300Z,17.40
2023-09-17T16:48:01.727Z,12.30
2023-09-17T16:50:32.757Z,28.20
2023-09-17T16:53:01.176Z,24.27
2023-09-17T16:55:39.271Z,18.42
2023-09-17T16:58:09.407Z,17.02
2023-09-17T17:00:48.237Z,15.38
2023-09-17T17:03:19.105Z,24.40
2023-09-17T17:05:51.542Z,15.25
2023-09-17T17:08:31.349Z,26.75
2023-09-17T17:11:27.416Z,19.30
2023-09-17T17:14:17.936Z,26.02
2023-09-17T17:16:50.410Z,26.50
2023-09-17T17:36:22.149Z,39.63
2023-09-17T17:49:00.333Z,90.78
2023-09-17T17:51:33.461Z,54.65
2023-09-17T17:54:07.613Z,49.13
2023-09-17T17:56:36.787Z,34.30
2023-09-17T17:59:08.717Z,40.60
2023-09-17T18:02:03.825Z,58.97
2023-09-17T18:04:32.525Z,75.75
2023-09-17T18:07:01.358Z,53.65
2023-09-17T18:09:31.162Z,75.47
2023-09-17T18:12:07.471Z,79.45
2023-09-17T18:14:51.458Z,53.47
2023-09-17T18:17:30.108Z,65.88
2023-09-17T20:37:33.855Z,34.83
2023-09-17T20:40:19.927Z,37.67
2023-09-17T20:43:11.768Z,30.60
2023-09-17T20:45:50.222Z,27.48
2023-09-17T20:48:34.854Z,33.38
2023-09-17T20:51:05.223Z,30.40
2023-09-17T20:53:38.853Z,31.02
2023-09-17T20:56:08.133Z,29.48
2023-09-17T20:58:36.969Z,27.00
2023-09-17T21:01:08.638Z,30.38
2023-09-17T21:03:37.512Z,32.50
2023-09-17T21:06:20.418Z,28.73
2023-09-17T21:09:28.861Z,30.20
2023-09-17T21:12:21.456Z,27.58
2023-09-17T21:14:50.768Z,33.42
2023-09-17T21:17:19.863Z,27.27
2023-09-17T21:19:48.325Z,32.53
2023-09-17T21:22:17.179Z,26.23
2023-09-17T21:24:46.236Z,30.95
2023-09-17T21:27:15.744Z,27.15
2023-09-17T21:29:45.098Z,26.23
2023-09-17T21:32:13.978Z,25.75
2023-09-17T21:34:43.482Z,30.48
2023-09-17T21:37:12.360Z,29.58
2023-09-17T21:39:40.751Z,27.38
2023-09-17T21:42:09.491Z,28.25
2023-09-17T21:44:37.951Z,28.35
2023-09-17T21:47:07.259Z,30.30
2023-09-17T21:49:35.825Z,28.48
2023-09-17T21:52:04.916Z,28.40
2023-09-17T21:54:33.347Z,31.67
2023-09-17T21:57:19.843Z,29.38
2023-09-17T21:59:48.701Z,27.92
2023-09-17T22:02:17.492Z,27.65
2023-09-17T22:04:46.126Z,30.13
2023-09-17T22:07:14.983Z,25.45
2023-09-17T22:09:46.138Z,26.85
2023-09-17T22:12:15.698Z,23.05
2023-09-17T22:14:44.132Z,26.20
2023-09-17T22:17:12.876Z,24.40
2023-09-17T22:19:42.281Z,23.80
2023-09-17T22:22:11.020Z,21.60
2023-09-17T22:24:39.461Z,24.48
2023-09-17T22:27:08.452Z,23.65
2023-09-17T22:29:37.248Z,22.58
2023-09-17T22:32:06.215Z,23.02
2023-09-17T22:34:35.243Z,25.92
2023-09-17T22:37:04.343Z,20.15
2023-09-17T22:39:33.080Z,22.38
2023-09-17T22:42:02.053Z,20.88
2023-09-17T22:44:30.519Z,20.45
2023-09-17T22:46:59.259Z,25.50
2023-09-17T22:49:30.881Z,23.10
2023-09-17T22:51:59.808Z,24.10
2023-09-17T22:54:28.282Z,22.35
2023-09-17T22:56:57.455Z,24.33
2023-09-17T22:59:26.553Z,21.95
2023-09-17T23:01:55.506Z,23.45
2023-09-17T23:04:24.135Z,22.42
2023-09-17T23:06:53.979Z,20.35
2023-09-17T23:09:22.520Z,18.23
2023-09-17T23:11:51.724Z,20.02
2023-09-17T23:14:20.653Z,21.42
2023-09-17T23:16:50.096Z,18.95
2023-09-17T23:19:19.237Z,21.15
2023-09-17T23:21:49.368Z,20.40
2023-09-17T23:24:18.791Z,23.38
2023-09-17T23:26:47.594Z,18.13
2023-09-17T23:29:17.288Z,19.52
2023-09-17T23:31:47.022Z,18.23
2023-09-17T23:34:18.289Z,18.42
2023-09-17T23:36:47.232Z,22.58
2023-09-17T23:39:17.102Z,20.00
2023-09-17T23:41:45.962Z,19.45
2023-09-17T23:44:14.560Z,17.25
2023-09-17T23:46:43.218Z,21.65
2023-09-17T23:49:11.999Z,20.77
2023-09-17T23:51:41.273Z,18.48
2023-09-17T23:54:09.793Z,20.92
2023-09-17T23:56:38.593Z,18.25
2023-09-17T23:59:07.061Z,20.45
